sensor_id;sensor_type;location;lat;lon;timestamp;P1;durP1;ratioP1;P2;durP2;ratioP2
58137;SDS011;43955;47.362;18.930;2023-09-19T00:01:48;15.13;;;5.32;;
58137;SDS011;43955;47.362;18.930;2023-09-19T00:04:16;13.48;;;5.00;;
58137;SDS011;43955;47.362;18.930;2023-09-19T00:06:44;11.32;;;4.70;;
58137;SDS011;43955;47.362;18.930;2023-09-19T00:09:12;9.82;;;5.72;;
58137;SDS011;43955;47.362;18.930;2023-09-19T00:11:40;11.40;;;5.10;;
58137;SDS011;43955;47.362;18.930;2023-09-19T00:14:08;12.60;;;5.05;;
58137;SDS011;43955;47.362;18.930;2023-09-19T00:16:36;10.93;;;5.12;;
58137;SDS011;43955;47.362;18.930;2023-09-19T00:19:04;9.93;;;5.00;;
58137;SDS011;43955;47.362;18.930;2023-09-19T00:21:36;11.63;;;6.40;;
58137;SDS011;43955;47.362;18.930;2023-09-19T00:24:05;10.40;;;5.47;;
58137;SDS011;43955;47.362;18.930;2023-09-19T00:26:33;9.77;;;5.32;;
58137;SDS011;43955;47.362;18.930;2023-09-19T00:29:03;9.48;;;5.28;;
58137;SDS011;43955;47.362;18.930;2023-09-19T00:31:31;9.48;;;5.43;;
58137;SDS011;43955;47.362;18.930;2023-09-19T00:33:59;9.88;;;5.43;;
58137;SDS011;43955;47.362;18.930;2023-09-19T00:36:34;9.73;;;5.53;;
58137;SDS011;43955;47.362;18.930;2023-09-19T00:39:02;10.13;;;5.43;;
58137;SDS011;43955;47.362;18.930;2023-09-19T00:41:30;12.82;;;5.12;;
58137;SDS011;43955;47.362;18.930;2023-09-19T00:43:58;8.50;;;5.57;;
58137;SDS011;43955;47.362;18.930;2023-09-19T00:46:28;9.10;;;5.68;;
58137;SDS011;43955;47.362;18.930;2023-09-19T00:48:57;12.32;;;5.80;;
58137;SDS011;43955;47.362;18.930;2023-09-19T00:51:26;11.18;;;5.78;;
58137;SDS011;43955;47.362;18.930;2023-09-19T00:53:55;11.45;;;5.53;;
58137;SDS011;43955;47.362;18.930;2023-09-19T00:56:23;9.15;;;5.65;;
58137;SDS011;43955;47.362;18.930;2023-09-19T00:58:51;9.07;;;5.93;;
58137;SDS011;43955;47.362;18.930;2023-09-19T01:01:18;8.90;;;5.60;;
58137;SDS011;43955;47.362;18.930;2023-09-19T01:03:46;9.48;;;6.32;;
58137;SDS011;43955;47.362;18.930;2023-09-19T01:06:14;8.30;;;6.12;;
58137;SDS011;43955;47.362;18.930;2023-09-19T01:08:42;10.85;;;5.75;;
58137;SDS011;43955;47.362;18.930;2023-09-19T01:11:27;7.95;;;5.97;;
58137;SDS011;43955;47.362;18.930;2023-09-19T01:14:02;9.75;;;6.05;;
58137;SDS011;43955;47.362;18.930;2023-09-19T01:20:08;15.02;;;6.05;;
58137;SDS011;43955;47.362;18.930;2023-09-19T01:22:46;13.27;;;6.50;;
58137;SDS011;43955;47.362;18.930;2023-09-19T01:28:30;12.18;;;6.47;;
58137;SDS011;43955;47.362;18.930;2023-09-19T01:31:06;13.25;;;6.60;;
58137;SDS011;43955;47.362;18.930;2023-09-19T01:36:35;12.55;;;6.20;;
58137;SDS011;43955;47.362;18.930;2023-09-19T01:39:12;9.68;;;6.15;;
58137;SDS011;43955;47.362;18.930;2023-09-19T01:47:43;14.68;;;6.45;;
58137;SDS011;43955;47.362;18.930;2023-09-19T01:52:57;9.65;;;5.65;;
58137;SDS011;43955;47.362;18.930;2023-09-19T01:55:34;15.32;;;6.32;;
58137;SDS011;43955;47.362;18.930;2023-09-19T02:00:36;11.52;;;6.05;;
58137;SDS011;43955;47.362;18.930;2023-09-19T02:03:05;15.88;;;5.95;;
58137;SDS011;43955;47.362;18.930;2023-09-19T02:05:33;11.30;;;6.25;;
58137;SDS011;43955;47.362;18.930;2023-09-19T02:08:01;8.48;;;5.80;;
58137;SDS011;43955;47.362;18.930;2023-09-19T02:10:29;12.65;;;6.97;;
58137;SDS011;43955;47.362;18.930;2023-09-19T02:12:58;13.98;;;6.10;;
58137;SDS011;43955;47.362;18.930;2023-09-19T02:15:27;13.90;;;6.40;;
58137;SDS011;43955;47.362;18.930;2023-09-19T02:17:55;11.18;;;6.35;;
58137;SDS011;43955;47.362;18.930;2023-09-19T02:20:24;10.50;;;6.30;;
58137;SDS011;43955;47.362;18.930;2023-09-19T02:22:54;10.90;;;6.40;;
58137;SDS011;43955;47.362;18.930;2023-09-19T02:25:22;14.05;;;7.18;;
58137;SDS011;43955;47.362;18.930;2023-09-19T02:27:50;13.27;;;7.00;;
58137;SDS011;43955;47.362;18.930;2023-09-19T02:30:21;11.75;;;7.25;;
58137;SDS011;43955;47.362;18.930;2023-09-19T02:32:50;11.63;;;6.70;;
58137;SDS011;43955;47.362;18.930;2023-09-19T02:35:18;14.40;;;7.05;;
58137;SDS011;43955;47.362;18.930;2023-09-19T02:37:50;12.32;;;6.70;;
58137;SDS011;43955;47.362;18.930;2023-09-19T02:40:18;12.93;;;6.78;;
58137;SDS011;43955;47.362;18.930;2023-09-19T02:42:54;9.52;;;6.22;;
58137;SDS011;43955;47.362;18.930;2023-09-19T02:45:23;10.95;;;6.32;;
58137;SDS011;43955;47.362;18.930;2023-09-19T02:47:51;8.98;;;5.50;;
58137;SDS011;43955;47.362;18.930;2023-09-19T02:50:20;13.95;;;6.80;;
58137;SDS011;43955;47.362;18.930;2023-09-19T02:52:47;13.88;;;5.82;;
58137;SDS011;43955;47.362;18.930;2023-09-19T02:55:17;12.37;;;6.40;;
58137;SDS011;43955;47.362;18.930;2023-09-19T02:57:53;11.93;;;6.68;;
58137;SDS011;43955;47.362;18.930;2023-09-19T03:00:24;14.63;;;7.15;;
58137;SDS011;43955;47.362;18.930;2023-09-19T03:02:53;10.38;;;6.97;;
58137;SDS011;43955;47.362;18.930;2023-09-19T03:05:23;12.52;;;7.12;;
58137;SDS011;43955;47.362;18.930;2023-09-19T03:07:52;11.23;;;7.07;;
58137;SDS011;43955;47.362;18.930;2023-09-19T03:10:22;13.60;;;6.45;;
58137;SDS011;43955;47.362;18.930;2023-09-19T03:12:53;13.38;;;6.70;;
58137;SDS011;43955;47.362;18.930;2023-09-19T03:15:22;7.70;;;6.00;;
58137;SDS011;43955;47.362;18.930;2023-09-19T03:17:50;14.98;;;6.50;;
58137;SDS011;43955;47.362;18.930;2023-09-19T03:20:21;17.48;;;6.87;;
58137;SDS011;43955;47.362;18.930;2023-09-19T03:22:51;11.35;;;6.70;;
58137;SDS011;43955;47.362;18.930;2023-09-19T03:25:20;13.77;;;7.03;;
58137;SDS011;43955;47.362;18.930;2023-09-19T03:27:50;9.30;;;6.12;;
58137;SDS011;43955;47.362;18.930;2023-09-19T03:30:20;13.40;;;6.90;;
58137;SDS011;43955;47.362;18.930;2023-09-19T03:32:49;10.45;;;7.10;;
58137;SDS011;43955;47.362;18.930;2023-09-19T03:35:18;12.45;;;7.37;;
58137;SDS011;43955;47.362;18.930;2023-09-19T03:37:46;19.00;;;7.62;;
58137;SDS011;43955;47.362;18.930;2023-09-19T03:40:14;13.38;;;6.47;;
58137;SDS011;43955;47.362;18.930;2023-09-19T03:42:43;10.82;;;6.37;;
58137;SDS011;43955;47.362;18.930;2023-09-19T03:45:11;16.05;;;6.93;;
58137;SDS011;43955;47.362;18.930;2023-09-19T03:47:46;12.60;;;6.47;;
58137;SDS011;43955;47.362;18.930;2023-09-19T03:50:17;19.92;;;7.50;;
58137;SDS011;43955;47.362;18.930;2023-09-19T03:52:46;11.35;;;6.65;;
58137;SDS011;43955;47.362;18.930;2023-09-19T03:55:14;15.93;;;7.30;;
58137;SDS011;43955;47.362;18.930;2023-09-19T03:57:42;17.27;;;7.50;;
58137;SDS011;43955;47.362;18.930;2023-09-19T04:00:10;11.43;;;7.10;;
58137;SDS011;43955;47.362;18.930;2023-09-19T04:02:40;12.37;;;6.93;;
58137;SDS011;43955;47.362;18.930;2023-09-19T04:05:08;18.20;;;7.30;;
58137;SDS011;43955;47.362;18.930;2023-09-19T04:07:38;15.48;;;7.30;;
58137;SDS011;43955;47.362;18.930;2023-09-19T04:10:06;13.65;;;7.47;;
58137;SDS011;43955;47.362;18.930;2023-09-19T04:12:36;9.88;;;5.82;;
58137;SDS011;43955;47.362;18.930;2023-09-19T04:15:05;10.73;;;6.50;;
58137;SDS011;43955;47.362;18.930;2023-09-19T04:17:36;14.68;;;7.32;;
58137;SDS011;43955;47.362;18.930;2023-09-19T04:20:04;12.95;;;6.97;;
58137;SDS011;43955;47.362;18.930;2023-09-19T04:22:35;13.30;;;7.43;;
58137;SDS011;43955;47.362;18.930;2023-09-19T04:25:03;11.57;;;7.70;;
58137;SDS011;43955;47.362;18.930;2023-09-19T04:27:31;21.40;;;9.65;;
58137;SDS011;43955;47.362;18.930;2023-09-19T04:29:59;11.63;;;7.25;;
58137;SDS011;43955;47.362;18.930;2023-09-19T04:32:28;14.43;;;7.97;;
58137;SDS011;43955;47.362;18.930;2023-09-19T04:34:56;17.80;;;7.72;;
58137;SDS011;43955;47.362;18.930;2023-09-19T04:37:27;12.48;;;8.45;;
58137;SDS011;43955;47.362;18.930;2023-09-19T04:39:56;13.25;;;8.05;;
58137;SDS011;43955;47.362;18.930;2023-09-19T04:42:24;19.60;;;8.70;;
58137;SDS011;43955;47.362;18.930;2023-09-19T04:44:53;302.27;;;41.00;;
58137;SDS011;43955;47.362;18.930;2023-09-19T04:47:20;14.85;;;8.05;;
58137;SDS011;43955;47.362;18.930;2023-09-19T04:49:49;18.15;;;5.95;;
58137;SDS011;43955;47.362;18.930;2023-09-19T04:52:17;7.50;;;3.78;;
58137;SDS011;43955;47.362;18.930;2023-09-19T04:54:46;7.00;;;2.67;;
58137;SDS011;43955;47.362;18.930;2023-09-19T04:57:15;6.55;;;1.52;;
58137;SDS011;43955;47.362;18.930;2023-09-19T04:59:43;11.20;;;2.00;;
58137;SDS011;43955;47.362;18.930;2023-09-19T05:02:11;5.20;;;1.10;;
58137;SDS011;43955;47.362;18.930;2023-09-19T05:04:39;12.25;;;1.77;;
58137;SDS011;43955;47.362;18.930;2023-09-19T05:07:07;17.08;;;2.25;;
58137;SDS011;43955;47.362;18.930;2023-09-19T05:09:35;5.07;;;0.90;;
58137;SDS011;43955;47.362;18.930;2023-09-19T05:12:04;10.38;;;1.45;;
58137;SDS011;43955;47.362;18.930;2023-09-19T05:14:33;19.40;;;1.80;;
58137;SDS011;43955;47.362;18.930;2023-09-19T05:17:00;4.53;;;0.88;;
58137;SDS011;43955;47.362;18.930;2023-09-19T05:19:31;3.10;;;0.65;;
58137;SDS011;43955;47.362;18.930;2023-09-19T05:22:00;4.28;;;0.77;;
58137;SDS011;43955;47.362;18.930;2023-09-19T05:24:27;3.47;;;0.70;;
58137;SDS011;43955;47.362;18.930;2023-09-19T05:26:56;7.78;;;0.80;;
58137;SDS011;43955;47.362;18.930;2023-09-19T05:29:24;3.50;;;0.65;;
58137;SDS011;43955;47.362;18.930;2023-09-19T05:31:52;3.10;;;0.88;;
58137;SDS011;43955;47.362;18.930;2023-09-19T05:34:22;2.20;;;0.47;;
58137;SDS011;43955;47.362;18.930;2023-09-19T05:36:50;1.83;;;0.40;;
58137;SDS011;43955;47.362;18.930;2023-09-19T05:39:19;4.57;;;0.90;;
58137;SDS011;43955;47.362;18.930;2023-09-19T05:41:47;8.85;;;1.10;;
58137;SDS011;43955;47.362;18.930;2023-09-19T05:44:15;2.45;;;0.82;;
58137;SDS011;43955;47.362;18.930;2023-09-19T05:46:42;5.82;;;1.00;;
58137;SDS011;43955;47.362;18.930;2023-09-19T05:49:10;4.20;;;0.80;;
58137;SDS011;43955;47.362;18.930;2023-09-19T05:51:38;3.30;;;0.88;;
58137;SDS011;43955;47.362;18.930;2023-09-19T05:54:06;9.60;;;1.33;;
58137;SDS011;43955;47.362;18.930;2023-09-19T05:56:34;4.60;;;0.88;;
58137;SDS011;43955;47.362;18.930;2023-09-19T05:59:03;4.75;;;1.00;;
58137;SDS011;43955;47.362;18.930;2023-09-19T06:01:32;4.80;;;0.90;;
58137;SDS011;43955;47.362;18.930;2023-09-19T06:04:02;5.57;;;1.00;;
58137;SDS011;43955;47.362;18.930;2023-09-19T06:06:32;2.92;;;0.73;;
58137;SDS011;43955;47.362;18.930;2023-09-19T06:09:01;4.25;;;1.08;;
58137;SDS011;43955;47.362;18.930;2023-09-19T06:11:29;4.53;;;1.23;;
58137;SDS011;43955;47.362;18.930;2023-09-19T06:14:00;1.92;;;1.00;;
58137;SDS011;43955;47.362;18.930;2023-09-19T06:16:29;2.65;;;0.75;;
58137;SDS011;43955;47.362;18.930;2023-09-19T06:18:59;4.32;;;1.15;;
58137;SDS011;43955;47.362;18.930;2023-09-19T06:21:27;1.73;;;0.70;;
58137;SDS011;43955;47.362;18.930;2023-09-19T06:23:55;10.75;;;2.25;;
58137;SDS011;43955;47.362;18.930;2023-09-19T06:26:25;2.72;;;0.73;;
58137;SDS011;43955;47.362;18.930;2023-09-19T06:28:54;6.75;;;1.23;;
58137;SDS011;43955;47.362;18.930;2023-09-19T06:31:23;1.48;;;0.65;;
58137;SDS011;43955;47.362;18.930;2023-09-19T06:33:53;2.25;;;0.88;;
58137;SDS011;43955;47.362;18.930;2023-09-19T06:36:21;3.75;;;0.95;;
58137;SDS011;43955;47.362;18.930;2023-09-19T06:38:50;4.05;;;0.82;;
58137;SDS011;43955;47.362;18.930;2023-09-19T06:41:18;3.05;;;0.80;;
58137;SDS011;43955;47.362;18.930;2023-09-19T06:43:47;3.72;;;1.00;;
58137;SDS011;43955;47.362;18.930;2023-09-19T06:46:15;1.27;;;0.70;;
58137;SDS011;43955;47.362;18.930;2023-09-19T06:48:43;5.40;;;0.75;;
58137;SDS011;43955;47.362;18.930;2023-09-19T06:51:11;1.58;;;0.60;;
58137;SDS011;43955;47.362;18.930;2023-09-19T06:53:39;3.78;;;0.88;;
58137;SDS011;43955;47.362;18.930;2023-09-19T06:56:09;2.70;;;0.80;;
58137;SDS011;43955;47.362;18.930;2023-09-19T06:58:37;3.22;;;1.80;;
58137;SDS011;43955;47.362;18.930;2023-09-19T07:01:06;2.12;;;0.70;;
58137;SDS011;43955;47.362;18.930;2023-09-19T07:03:33;1.33;;;0.60;;
58137;SDS011;43955;47.362;18.930;2023-09-19T07:06:01;3.05;;;1.00;;
58137;SDS011;43955;47.362;18.930;2023-09-19T07:08:32;3.75;;;1.02;;
58137;SDS011;43955;47.362;18.930;2023-09-19T07:11:00;1.52;;;0.65;;
58137;SDS011;43955;47.362;18.930;2023-09-19T07:13:27;1.20;;;0.50;;
58137;SDS011;43955;47.362;18.930;2023-09-19T07:15:55;3.72;;;0.90;;
58137;SDS011;43955;47.362;18.930;2023-09-19T07:18:29;3.45;;;0.80;;
58137;SDS011;43955;47.362;18.930;2023-09-19T07:20:58;1.42;;;0.70;;
58137;SDS011;43955;47.362;18.930;2023-09-19T07:23:32;3.45;;;1.35;;
58137;SDS011;43955;47.362;18.930;2023-09-19T07:26:02;1.73;;;0.57;;
58137;SDS011;43955;47.362;18.930;2023-09-19T07:28:32;2.67;;;0.80;;
58137;SDS011;43955;47.362;18.930;2023-09-19T07:31:04;1.90;;;0.70;;
58137;SDS011;43955;47.362;18.930;2023-09-19T07:33:34;1.45;;;0.77;;
58137;SDS011;43955;47.362;18.930;2023-09-19T07:36:02;2.83;;;0.70;;
58137;SDS011;43955;47.362;18.930;2023-09-19T07:38:30;2.30;;;0.80;;
58137;SDS011;43955;47.362;18.930;2023-09-19T07:41:00;1.98;;;0.77;;
58137;SDS011;43955;47.362;18.930;2023-09-19T07:43:30;1.40;;;0.50;;
58137;SDS011;43955;47.362;18.930;2023-09-19T07:46:02;1.20;;;0.60;;
58137;SDS011;43955;47.362;18.930;2023-09-19T07:48:35;1.85;;;0.75;;
58137;SDS011;43955;47.362;18.930;2023-09-19T07:51:06;2.30;;;0.60;;
58137;SDS011;43955;47.362;18.930;2023-09-19T07:53:35;2.17;;;0.70;;
58137;SDS011;43955;47.362;18.930;2023-09-19T07:56:03;2.30;;;0.70;;
58137;SDS011;43955;47.362;18.930;2023-09-19T07:58:32;1.30;;;0.60;;
58137;SDS011;43955;47.362;18.930;2023-09-19T08:01:04;2.15;;;0.75;;
58137;SDS011;43955;47.362;18.930;2023-09-19T08:03:32;2.83;;;1.10;;
58137;SDS011;43955;47.362;18.930;2023-09-19T08:06:01;2.42;;;0.80;;
58137;SDS011;43955;47.362;18.930;2023-09-19T08:08:28;4.70;;;1.25;;
58137;SDS011;43955;47.362;18.930;2023-09-19T08:10:56;2.62;;;0.90;;
58137;SDS011;43955;47.362;18.930;2023-09-19T08:13:24;3.28;;;1.00;;
58137;SDS011;43955;47.362;18.930;2023-09-19T08:15:52;1.98;;;0.90;;
58137;SDS011;43955;47.362;18.930;2023-09-19T08:18:25;2.70;;;0.80;;
58137;SDS011;43955;47.362;18.930;2023-09-19T08:20:56;5.97;;;1.08;;
58137;SDS011;43955;47.362;18.930;2023-09-19T08:23:26;2.28;;;0.80;;
58137;SDS011;43955;47.362;18.930;2023-09-19T08:25:56;2.50;;;1.10;;
58137;SDS011;43955;47.362;18.930;2023-09-19T08:28:25;1.45;;;0.65;;
58137;SDS011;43955;47.362;18.930;2023-09-19T08:30:52;1.87;;;1.08;;
58137;SDS011;43955;47.362;18.930;2023-09-19T08:33:22;3.87;;;1.20;;
58137;SDS011;43955;47.362;18.930;2023-09-19T08:35:52;4.65;;;1.15;;
58137;SDS011;43955;47.362;18.930;2023-09-19T08:38:19;2.22;;;1.08;;
58137;SDS011;43955;47.362;18.930;2023-09-19T08:40:47;2.45;;;0.90;;
58137;SDS011;43955;47.362;18.930;2023-09-19T08:43:15;3.35;;;1.23;;
58137;SDS011;43955;47.362;18.930;2023-09-19T08:45:43;3.97;;;1.35;;
58137;SDS011;43955;47.362;18.930;2023-09-19T08:48:16;3.78;;;1.58;;
58137;SDS011;43955;47.362;18.930;2023-09-19T08:53:52;5.70;;;1.30;;
58137;SDS011;43955;47.362;18.930;2023-09-19T08:56:33;3.60;;;1.00;;
58137;SDS011;43955;47.362;18.930;2023-09-19T08:59:04;2.72;;;1.30;;
58137;SDS011;43955;47.362;18.930;2023-09-19T09:01:36;2.50;;;1.20;;
58137;SDS011;43955;47.362;18.930;2023-09-19T09:04:09;2.08;;;1.10;;
58137;SDS011;43955;47.362;18.930;2023-09-19T09:06:41;2.55;;;1.62;;
58137;SDS011;43955;47.362;18.930;2023-09-19T09:09:12;3.10;;;1.58;;
58137;SDS011;43955;47.362;18.930;2023-09-19T09:11:42;4.15;;;1.65;;
58137;SDS011;43955;47.362;18.930;2023-09-19T09:14:09;3.67;;;1.65;;
58137;SDS011;43955;47.362;18.930;2023-09-19T09:16:38;5.00;;;1.42;;
58137;SDS011;43955;47.362;18.930;2023-09-19T09:19:07;9.13;;;1.73;;
58137;SDS011;43955;47.362;18.930;2023-09-19T09:21:34;6.78;;;2.03;;
58137;SDS011;43955;47.362;18.930;2023-09-19T09:26:57;5.28;;;1.98;;
58137;SDS011;43955;47.362;18.930;2023-09-19T09:32:29;3.53;;;1.80;;
58137;SDS011;43955;47.362;18.930;2023-09-19T09:35:01;7.05;;;2.20;;
58137;SDS011;43955;47.362;18.930;2023-09-19T09:37:31;4.55;;;2.00;;
58137;SDS011;43955;47.362;18.930;2023-09-19T09:39:59;4.90;;;2.33;;
58137;SDS011;43955;47.362;18.930;2023-09-19T09:42:48;3.25;;;1.90;;
58137;SDS011;43955;47.362;18.930;2023-09-19T09:48:04;4.22;;;2.33;;
58137;SDS011;43955;47.362;18.930;2023-09-19T09:50:46;5.45;;;2.37;;
58137;SDS011;43955;47.362;18.930;2023-09-19T09:53:27;6.12;;;2.05;;
58137;SDS011;43955;47.362;18.930;2023-09-19T09:58:52;6.25;;;2.60;;
58137;SDS011;43955;47.362;18.930;2023-09-19T10:01:24;4.40;;;2.60;;
58137;SDS011;43955;47.362;18.930;2023-09-19T10:03:57;3.25;;;2.10;;
58137;SDS011;43955;47.362;18.930;2023-09-19T10:06:39;5.57;;;2.40;;
58137;SDS011;43955;47.362;18.930;2023-09-19T10:09:14;4.87;;;2.45;;
58137;SDS011;43955;47.362;18.930;2023-09-19T10:11:45;3.12;;;2.22;;
58137;SDS011;43955;47.362;18.930;2023-09-19T10:14:25;3.53;;;2.45;;
58137;SDS011;43955;47.362;18.930;2023-09-19T10:16:56;5.87;;;2.58;;
58137;SDS011;43955;47.362;18.930;2023-09-19T10:19:39;3.67;;;2.10;;
58137;SDS011;43955;47.362;18.930;2023-09-19T10:22:13;4.82;;;3.22;;
58137;SDS011;43955;47.362;18.930;2023-09-19T10:24:49;3.45;;;2.30;;
58137;SDS011;43955;47.362;18.930;2023-09-19T10:27:24;4.53;;;2.70;;
58137;SDS011;43955;47.362;18.930;2023-09-19T10:29:56;6.45;;;2.50;;
58137;SDS011;43955;47.362;18.930;2023-09-19T10:32:28;4.60;;;3.17;;
58137;SDS011;43955;47.362;18.930;2023-09-19T10:35:01;6.30;;;3.05;;
58137;SDS011;43955;47.362;18.930;2023-09-19T10:37:33;4.57;;;2.37;;
58137;SDS011;43955;47.362;18.930;2023-09-19T10:40:02;5.90;;;2.85;;
58137;SDS011;43955;47.362;18.930;2023-09-19T10:42:33;7.53;;;3.05;;
58137;SDS011;43955;47.362;18.930;2023-09-19T10:45:00;4.62;;;2.83;;
58137;SDS011;43955;47.362;18.930;2023-09-19T10:47:31;8.15;;;3.35;;
58137;SDS011;43955;47.362;18.930;2023-09-19T10:49:58;4.85;;;2.85;;
58137;SDS011;43955;47.362;18.930;2023-09-19T10:52:27;5.22;;;3.28;;
58137;SDS011;43955;47.362;18.930;2023-09-19T10:54:58;3.87;;;2.70;;
58137;SDS011;43955;47.362;18.930;2023-09-19T10:57:29;5.80;;;2.78;;
58137;SDS011;43955;47.362;18.930;2023-09-19T11:00:02;4.97;;;2.12;;
58137;SDS011;43955;47.362;18.930;2023-09-19T11:05:38;4.90;;;1.80;;
58137;SDS011;43955;47.362;18.930;2023-09-19T11:08:08;3.72;;;2.17;;
58137;SDS011;43955;47.362;18.930;2023-09-19T11:10:49;3.22;;;1.70;;
58137;SDS011;43955;47.362;18.930;2023-09-19T11:13:28;3.55;;;1.62;;
58137;SDS011;43955;47.362;18.930;2023-09-19T11:26:51;4.87;;;1.10;;
58137;SDS011;43955;47.362;18.930;2023-09-19T11:29:26;3.92;;;1.23;;
58137;SDS011;43955;47.362;18.930;2023-09-19T11:31:58;3.17;;;0.90;;
58137;SDS011;43955;47.362;18.930;2023-09-19T11:42:46;2.08;;;1.23;;
58137;SDS011;43955;47.362;18.930;2023-09-19T11:48:20;1.95;;;1.02;;
58137;SDS011;43955;47.362;18.930;2023-09-19T11:50:53;3.53;;;1.77;;
58137;SDS011;43955;47.362;18.930;2023-09-19T11:53:24;1.95;;;1.12;;
58137;SDS011;43955;47.362;18.930;2023-09-19T11:56:00;2.28;;;1.30;;
58137;SDS011;43955;47.362;18.930;2023-09-19T11:58:28;2.40;;;1.33;;
58137;SDS011;43955;47.362;18.930;2023-09-19T12:00:59;5.12;;;1.27;;
58137;SDS011;43955;47.362;18.930;2023-09-19T12:03:29;3.33;;;1.27;;
58137;SDS011;43955;47.362;18.930;2023-09-19T12:05:58;2.45;;;1.40;;
58137;SDS011;43955;47.362;18.930;2023-09-19T12:08:27;2.10;;;1.10;;
58137;SDS011;43955;47.362;18.930;2023-09-19T12:10:56;2.17;;;1.27;;
58137;SDS011;43955;47.362;18.930;2023-09-19T12:13:25;3.70;;;1.15;;
58137;SDS011;43955;47.362;18.930;2023-09-19T12:15:55;3.33;;;1.35;;
58137;SDS011;43955;47.362;18.930;2023-09-19T12:20:57;2.40;;;1.40;;
58137;SDS011;43955;47.362;18.930;2023-09-19T12:23:25;4.62;;;1.40;;
58137;SDS011;43955;47.362;18.930;2023-09-19T12:25:54;3.10;;;1.40;;
58137;SDS011;43955;47.362;18.930;2023-09-19T12:28:26;2.90;;;1.40;;
58137;SDS011;43955;47.362;18.930;2023-09-19T12:30:55;2.95;;;1.20;;
58137;SDS011;43955;47.362;18.930;2023-09-19T12:33:25;3.50;;;0.93;;
58137;SDS011;43955;47.362;18.930;2023-09-19T12:35:55;4.03;;;1.10;;
58137;SDS011;43955;47.362;18.930;2023-09-19T12:38:26;2.80;;;1.10;;
58137;SDS011;43955;47.362;18.930;2023-09-19T12:41:03;4.85;;;1.30;;
58137;SDS011;43955;47.362;18.930;2023-09-19T12:43:31;3.12;;;1.48;;
58137;SDS011;43955;47.362;18.930;2023-09-19T12:46:03;4.03;;;1.23;;
58137;SDS011;43955;47.362;18.930;2023-09-19T12:48:35;2.95;;;1.30;;
58137;SDS011;43955;47.362;18.930;2023-09-19T12:51:09;3.90;;;1.42;;
58137;SDS011;43955;47.362;18.930;2023-09-19T12:53:40;2.53;;;1.40;;
58137;SDS011;43955;47.362;18.930;2023-09-19T12:56:14;2.55;;;1.02;;
58137;SDS011;43955;47.362;18.930;2023-09-19T12:58:55;3.12;;;1.15;;
58137;SDS011;43955;47.362;18.930;2023-09-19T13:01:24;3.65;;;1.40;;
58137;SDS011;43955;47.362;18.930;2023-09-19T13:04:30;5.05;;;1.65;;
58137;SDS011;43955;47.362;18.930;2023-09-19T13:06:57;3.40;;;1.30;;
58137;SDS011;43955;47.362;18.930;2023-09-19T13:09:32;2.50;;;1.40;;
58137;SDS011;43955;47.362;18.930;2023-09-19T13:12:03;3.47;;;1.30;;
58137;SDS011;43955;47.362;18.930;2023-09-19T13:14:30;2.80;;;1.05;;
58137;SDS011;43955;47.362;18.930;2023-09-19T13:19:47;2.75;;;1.37;;
58137;SDS011;43955;47.362;18.930;2023-09-19T13:25:21;4.97;;;1.30;;
58137;SDS011;43955;47.362;18.930;2023-09-19T13:27:50;2.42;;;1.20;;
58137;SDS011;43955;47.362;18.930;2023-09-19T13:30:24;2.20;;;1.00;;
58137;SDS011;43955;47.362;18.930;2023-09-19T13:33:04;3.97;;;1.15;;
58137;SDS011;43955;47.362;18.930;2023-09-19T13:35:33;3.58;;;1.20;;
58137;SDS011;43955;47.362;18.930;2023-09-19T13:38:02;1.87;;;1.25;;
58137;SDS011;43955;47.362;18.930;2023-09-19T13:40:30;3.35;;;1.40;;
58137;SDS011;43955;47.362;18.930;2023-09-19T13:43:02;6.90;;;1.52;;
58137;SDS011;43955;47.362;18.930;2023-09-19T13:45:30;2.22;;;0.98;;
58137;SDS011;43955;47.362;18.930;2023-09-19T13:47:58;5.60;;;1.15;;
58137;SDS011;43955;47.362;18.930;2023-09-19T13:50:26;4.57;;;1.45;;
58137;SDS011;43955;47.362;18.930;2023-09-19T13:52:57;3.83;;;1.30;;
58137;SDS011;43955;47.362;18.930;2023-09-19T13:55:28;15.60;;;2.00;;
58137;SDS011;43955;47.362;18.930;2023-09-19T13:57:56;2.50;;;1.10;;
58137;SDS011;43955;47.362;18.930;2023-09-19T14:00:24;4.35;;;1.30;;
58137;SDS011;43955;47.362;18.930;2023-09-19T14:02:52;6.45;;;1.60;;
58137;SDS011;43955;47.362;18.930;2023-09-19T14:05:19;3.50;;;1.30;;
58137;SDS011;43955;47.362;18.930;2023-09-19T14:07:49;3.25;;;1.17;;
58137;SDS011;43955;47.362;18.930;2023-09-19T14:10:17;3.75;;;1.48;;
58137;SDS011;43955;47.362;18.930;2023-09-19T14:12:45;3.47;;;1.30;;
58137;SDS011;43955;47.362;18.930;2023-09-19T14:15:12;3.45;;;1.00;;
58137;SDS011;43955;47.362;18.930;2023-09-19T14:17:40;5.32;;;1.23;;
58137;SDS011;43955;47.362;18.930;2023-09-19T14:20:14;20.52;;;2.25;;
58137;SDS011;43955;47.362;18.930;2023-09-19T14:22:42;4.97;;;1.27;;
58137;SDS011;43955;47.362;18.930;2023-09-19T14:25:10;3.78;;;1.25;;
58137;SDS011;43955;47.362;18.930;2023-09-19T14:27:38;3.87;;;1.40;;
58137;SDS011;43955;47.362;18.930;2023-09-19T14:30:06;2.72;;;1.20;;
58137;SDS011;43955;47.362;18.930;2023-09-19T14:32:34;3.37;;;1.40;;
58137;SDS011;43955;47.362;18.930;2023-09-19T14:35:03;3.70;;;1.40;;
58137;SDS011;43955;47.362;18.930;2023-09-19T14:37:31;3.35;;;1.08;;
58137;SDS011;43955;47.362;18.930;2023-09-19T14:39:58;4.57;;;1.52;;
58137;SDS011;43955;47.362;18.930;2023-09-19T14:42:26;3.28;;;1.40;;
58137;SDS011;43955;47.362;18.930;2023-09-19T14:44:54;2.42;;;1.30;;
58137;SDS011;43955;47.362;18.930;2023-09-19T14:47:22;3.87;;;1.10;;
58137;SDS011;43955;47.362;18.930;2023-09-19T14:49:50;3.45;;;1.17;;
58137;SDS011;43955;47.362;18.930;2023-09-19T14:52:18;2.47;;;1.37;;
58137;SDS011;43955;47.362;18.930;2023-09-19T14:54:46;3.78;;;0.93;;
58137;SDS011;43955;47.362;18.930;2023-09-19T14:57:13;3.92;;;1.33;;
58137;SDS011;43955;47.362;18.930;2023-09-19T14:59:41;3.10;;;1.05;;
58137;SDS011;43955;47.362;18.930;2023-09-19T15:02:09;2.95;;;1.10;;
58137;SDS011;43955;47.362;18.930;2023-09-19T15:04:37;5.95;;;1.15;;
58137;SDS011;43955;47.362;18.930;2023-09-19T15:07:08;2.45;;;1.20;;
58137;SDS011;43955;47.362;18.930;2023-09-19T15:09:36;2.65;;;1.10;;
58137;SDS011;43955;47.362;18.930;2023-09-19T15:12:05;3.90;;;1.20;;
58137;SDS011;43955;47.362;18.930;2023-09-19T15:14:33;3.03;;;1.23;;
58137;SDS011;43955;47.362;18.930;2023-09-19T15:17:00;5.30;;;1.20;;
58137;SDS011;43955;47.362;18.930;2023-09-19T15:19:27;7.18;;;2.05;;
58137;SDS011;43955;47.362;18.930;2023-09-19T15:21:55;2.72;;;1.23;;
58137;SDS011;43955;47.362;18.930;2023-09-19T15:24:22;3.55;;;1.30;;
58137;SDS011;43955;47.362;18.930;2023-09-19T15:26:50;3.25;;;1.37;;
58137;SDS011;43955;47.362;18.930;2023-09-19T15:29:20;1.95;;;1.35;;
58137;SDS011;43955;47.362;18.930;2023-09-19T15:31:49;4.05;;;1.10;;
58137;SDS011;43955;47.362;18.930;2023-09-19T15:34:16;4.55;;;1.62;;
58137;SDS011;43955;47.362;18.930;2023-09-19T15:36:44;2.65;;;1.42;;
58137;SDS011;43955;47.362;18.930;2023-09-19T15:39:13;2.92;;;1.40;;
58137;SDS011;43955;47.362;18.930;2023-09-19T15:41:44;3.25;;;1.00;;
58137;SDS011;43955;47.362;18.930;2023-09-19T15:44:14;2.78;;;1.70;;
58137;SDS011;43955;47.362;18.930;2023-09-19T15:46:43;4.47;;;1.73;;
58137;SDS011;43955;47.362;18.930;2023-09-19T15:49:12;2.20;;;1.48;;
58137;SDS011;43955;47.362;18.930;2023-09-19T15:51:40;1.95;;;1.20;;
58137;SDS011;43955;47.362;18.930;2023-09-19T15:54:11;3.90;;;1.45;;
58137;SDS011;43955;47.362;18.930;2023-09-19T15:56:43;3.75;;;2.05;;